Time;durP1;ratioP1;P1;durP2;ratioP2;P2;SDS_P1;SDS_P2;PMS_P1;PMS_P2;Temp;Humidity;BMP_temperature;BMP_pressure;BME280_temperature;BME280_humidity;BME280_pressure;Samples;Min_cycle;Max_cycle;Signal;HPM_P1;HPM_P2
2021/07/04 00:00:46;;;;;;;;;;;18.40;87.70;;;;;;5034116;28;20101;-76
2021/07/04 00:03:13;;;;;;;13.05;3.45;;;18.40;88.20;;;;;;5033636;28;19955;-78
2021/07/04 00:05:42;;;;;;;14.10;3.25;;;18.30;88.20;;;;;;5032344;28;20045;-77
2021/07/04 00:08:12;;;;;;;11.02;2.85;;;18.30;88.70;;;;;;5032300;28;20390;-76
2021/07/04 00:10:47;;;;;;;17.77;3.95;;;18.30;89.00;;;;;;5032306;28;20036;-76
2021/07/04 00:13:14;;;;;;;11.65;3.30;;;18.00;89.90;;;;;;5033458;28;20052;-76
2021/07/04 00:15:41;;;;;;;13.35;3.42;;;18.00;90.30;;;;;;5033460;28;20366;-77
2021/07/04 00:18:15;;;;;;;11.20;2.78;;;17.90;90.50;;;;;;5033430;28;20020;-78
2021/07/04 00:20:42;;;;;;;15.35;3.53;;;18.00;90.40;;;;;;5033428;28;20025;-78
2021/07/04 00:23:08;;;;;;;13.00;3.22;;;18.20;90.30;;;;;;5033276;28;20504;-77
2021/07/04 00:25:34;;;;;;;;;;;18.00;90.50;;;;;;5033706;28;20025;-77
2021/07/04 00:28:00;;;;;;;10.80;3.00;;;18.00;90.90;;;;;;5033236;28;19905;-75
2021/07/04 00:30:26;;;;;;;;;;;17.90;90.90;;;;;;5033697;28;20030;-75
2021/07/04 00:32:53;;;;;;;13.95;3.78;;;17.80;91.20;;;;;;5033115;28;19920;-78
2021/07/04 00:35:20;;;;;;;12.80;3.70;;;17.70;91.60;;;;;;5033438;28;20481;-77
2021/07/04 00:37:46;;;;;;;14.88;3.70;;;17.60;91.90;;;;;;5032883;28;20052;-75
2021/07/04 00:40:13;;;;;;;15.07;4.22;;;17.50;92.40;;;;;;5033291;28;20021;-77
2021/07/04 00:42:39;;;;;;;18.33;4.50;;;17.40;92.70;;;;;;5033099;28;20486;-78
2021/07/04 00:45:10;;;;;;;15.85;3.83;;;17.30;93.00;;;;;;5033118;28;20025;-76
2021/07/04 00:47:36;;;;;;;12.70;3.70;;;17.40;92.50;;;;;;5033467;28;20120;-77
2021/07/04 00:50:04;;;;;;;13.13;3.53;;;17.50;92.40;;;;;;5033060;28;20034;-77
2021/07/04 00:52:30;;;;;;;11.10;3.60;;;17.50;92.40;;;;;;5032877;28;20573;-76
2021/07/04 00:54:55;;;;;;;;;;;17.50;92.60;;;;;;5033404;28;20045;-77
2021/07/04 00:57:21;;;;;;;10.85;3.67;;;17.50;92.40;;;;;;5033030;28;19912;-76
2021/07/04 00:59:47;;;;;;;;;;;17.50;92.20;;;;;;5033589;28;20018;-76
2021/07/04 01:02:12;;;;;;;12.20;3.30;;;17.40;92.60;;;;;;5033072;28;19905;-76
2021/07/04 01:04:38;;;;;;;;;;;17.40;92.80;;;;;;5033345;28;20505;-77
2021/07/04 01:07:04;;;;;;;14.00;3.65;;;17.30;92.60;;;;;;5033123;28;19945;-76
2021/07/04 01:09:29;;;;;;;;;;;17.30;92.70;;;;;;5036018;28;20029;-77
2021/07/04 01:11:55;;;;;;;15.35;3.63;;;17.30;92.80;;;;;;5036809;28;20322;-76
2021/07/04 01:14:22;;;;;;;;;;;17.40;92.90;;;;;;5035878;28;20021;-76
2021/07/04 01:16:48;;;;;;;14.35;3.53;;;17.40;92.50;;;;;;5036848;28;19912;-76
2021/07/04 01:19:16;;;;;;;12.25;3.47;;;17.40;92.50;;;;;;5036689;28;20025;-77
2021/07/04 01:21:43;;;;;;;13.55;3.45;;;17.40;92.70;;;;;;5036630;28;20040;-75
2021/07/04 01:24:10;;;;;;;12.07;3.40;;;17.30;92.70;;;;;;5036697;28;20020;-77
2021/07/04 01:26:36;;;;;;;8.98;2.80;;;17.30;93.10;;;;;;5036569;28;20049;-76
2021/07/04 01:29:02;;;;;;;14.02;3.72;;;17.30;92.60;;;;;;5036495;28;20025;-77
2021/07/04 01:31:28;;;;;;;9.75;2.95;;;17.40;92.80;;;;;;5036428;28;20025;-77
2021/07/04 01:33:54;;;;;;;;;;;17.40;92.60;;;;;;5036888;28;20083;-77
2021/07/04 01:36:20;;;;;;;7.63;2.75;;;17.60;92.20;;;;;;5036533;28;19905;-76
2021/07/04 01:38:45;;;;;;;;;;;17.50;92.40;;;;;;5036388;28;20046;-76
2021/07/04 01:41:11;;;;;;;13.15;3.80;;;17.50;92.90;;;;;;5035011;28;19912;-75
2021/07/04 01:43:37;;;;;;;;;;;17.50;92.40;;;;;;5037000;28;20021;-77
2021/07/04 01:46:03;;;;;;;12.68;3.60;;;17.40;92.50;;;;;;5036495;28;19992;-76
2021/07/04 01:48:30;;;;;;;9.73;3.00;;;17.50;92.20;;;;;;5035087;28;20510;-77
2021/07/04 01:50:56;;;;;;;;;;;17.50;92.10;;;;;;5036710;28;20096;-76
2021/07/04 01:53:22;;;;;;;14.25;3.70;;;17.50;92.10;;;;;;5036452;28;20324;-77
2021/07/04 01:55:47;;;;;;;;;;;17.40;92.40;;;;;;5036629;28;20029;-77
2021/07/04 01:58:13;;;;;;;12.52;3.10;;;17.30;92.70;;;;;;5034879;28;20361;-77
2021/07/04 02:00:39;;;;;;;;;;;17.30;92.80;;;;;;5036538;28;20017;-76
2021/07/04 02:03:08;;;;;;;10.95;3.03;;;17.30;92.80;;;;;;5036027;28;19920;-78
2021/07/04 02:05:34;;;;;;;13.90;3.53;;;17.30;93.00;;;;;;5036315;28;20026;-77
2021/07/04 02:08:00;;;;;;;;;;;17.20;93.40;;;;;;5036579;28;20028;-77
2021/07/04 02:10:30;;;;;;;13.23;3.50;;;17.30;93.40;;;;;;5035963;28;19905;-77
2021/07/04 02:12:57;;;;;;;11.18;3.65;;;17.30;93.00;;;;;;5034223;28;20501;-77
2021/07/04 02:15:31;;;;;;;12.63;3.30;;;17.30;93.30;;;;;;5035846;28;20021;-78
2021/07/04 02:18:06;;;;;;;11.35;3.70;;;17.30;93.40;;;;;;5035813;28;20053;-76
2021/07/04 02:20:38;;;;;;;18.00;4.30;;;17.30;93.30;;;;;;5035071;28;20017;-77
2021/07/04 02:23:13;;;;;;;15.57;3.80;;;17.30;93.40;;;;;;5035839;28;20112;-77
2021/07/04 02:25:42;;;;;;;16.33;3.77;;;17.30;93.20;;;;;;5035724;28;20025;-78
2021/07/04 02:28:09;;;;;;;12.23;3.40;;;17.40;93.20;;;;;;5035538;28;20260;-76
2021/07/04 02:30:36;;;;;;;13.38;3.40;;;17.40;93.00;;;;;;5035818;28;20474;-77
2021/07/04 02:33:06;;;;;;;10.88;3.50;;;17.40;93.20;;;;;;5035472;28;20022;-77
2021/07/04 02:35:36;;;;;;;11.88;3.40;;;17.40;93.10;;;;;;5035443;28;20028;-77
2021/07/04 02:38:02;;;;;;;10.30;3.08;;;17.50;93.00;;;;;;5035364;28;20502;-76
2021/07/04 02:40:28;;;;;;;12.98;3.53;;;17.50;92.90;;;;;;5035393;28;20037;-77
2021/07/04 02:42:55;;;;;;;13.50;4.55;;;17.60;92.70;;;;;;5035297;28;20036;-77
2021/07/04 02:45:22;;;;;;;13.00;3.75;;;17.60;92.40;;;;;;5035281;28;20018;-77
2021/07/04 02:47:47;;;;;;;12.20;3.58;;;17.50;92.80;;;;;;5035207;28;20021;-77
2021/07/04 02:50:13;;;;;;;;;;;17.50;92.80;;;;;;5035943;28;20040;-78
2021/07/04 02:52:39;;;;;;;10.52;3.10;;;17.40;93.20;;;;;;5035290;28;19948;-76
2021/07/04 02:55:06;;;;;;;;;;;17.30;93.30;;;;;;5035504;28;20436;-77
2021/07/04 02:57:32;;;;;;;10.88;2.95;;;17.30;93.60;;;;;;5035101;28;19905;-78
2021/07/04 02:59:57;;;;;;;;;;;17.30;93.60;;;;;;5035426;28;20072;-77
2021/07/04 03:02:24;;;;;;;12.75;3.40;;;17.20;93.40;;;;;;5034966;28;19912;-76
2021/07/04 03:04:51;;;;;;;14.38;3.90;;;17.30;93.30;;;;;;5034898;28;20021;-77
2021/07/04 03:07:17;;;;;;;11.32;2.92;;;17.30;93.50;;;;;;5034878;28;20025;-77
2021/07/04 03:09:43;;;;;;;6.85;2.75;;;17.50;93.20;;;;;;5034963;28;20037;-76
2021/07/04 03:12:10;;;;;;;12.18;3.58;;;17.60;92.80;;;;;;5034523;28;20026;-78
2021/07/04 03:14:36;;;;;;;12.07;3.33;;;17.50;92.80;;;;;;5034667;28;20036;-77
2021/07/04 03:17:03;;;;;;;10.73;3.10;;;17.50;92.90;;;;;;5034672;28;20421;-78
2021/07/04 03:19:29;;;;;;;14.25;3.40;;;17.40;93.10;;;;;;5033329;28;20111;-76
2021/07/04 03:21:54;;;;;;;;;;;17.30;93.40;;;;;;5035172;28;20037;-77
2021/07/04 03:24:20;;;;;;;11.77;3.45;;;17.40;93.00;;;;;;5034542;28;19905;-77
2021/07/04 03:26:46;;;;;;;;;;;17.30;93.30;;;;;;5034918;28;20530;-77
2021/07/04 03:29:11;;;;;;;10.07;3.67;;;17.20;93.50;;;;;;5034460;28;20085;-76
2021/07/04 03:31:37;;;;;;;;;;;17.20;93.80;;;;;;5033711;28;20029;-76
2021/07/04 03:34:03;;;;;;;12.10;3.83;;;17.20;93.60;;;;;;5034697;28;20422;-76
2021/07/04 03:36:28;;;;;;;;;;;17.30;93.50;;;;;;5034704;28;20064;-77
2021/07/04 03:38:54;;;;;;;9.77;3.25;;;17.20;94.10;;;;;;5033075;28;19916;-77
2021/07/04 03:41:20;;;;;;;;;;;17.20;94.00;;;;;;5034605;28;20033;-78
2021/07/04 03:43:46;;;;;;;10.77;3.50;;;17.20;93.50;;;;;;5034357;28;19988;-76
2021/07/04 03:46:11;;;;;;;;;;;17.30;93.60;;;;;;5034520;28;20032;-78
2021/07/04 03:48:37;;;;;;;10.68;3.17;;;17.30;93.70;;;;;;5034091;28;19909;-77
2021/07/04 03:51:03;;;;;;;;;;;17.20;93.90;;;;;;5034648;28;20022;-76
2021/07/04 03:53:29;;;;;;;12.32;3.70;;;17.20;93.90;;;;;;5033978;28;20372;-76
2021/07/04 03:55:54;;;;;;;;;;;17.30;93.90;;;;;;5034370;28;20032;-75
2021/07/04 03:58:20;;;;;;;13.48;3.45;;;17.30;93.70;;;;;;5034090;28;19905;-77
2021/07/04 04:00:46;;;;;;;;;;;17.30;93.80;;;;;;5034286;28;20022;-77
2021/07/04 04:03:11;;;;;;;10.32;3.35;;;17.30;94.00;;;;;;5033935;28;19912;-77
2021/07/04 04:05:37;;;;;;;;;;;17.30;94.20;;;;;;5034172;28;20398;-77
2021/07/04 04:08:06;;;;;;;12.50;3.60;;;17.20;94.30;;;;;;5033705;28;19905;-77
2021/07/04 04:10:32;;;;;;;12.35;3.88;;;17.30;94.30;;;;;;5033901;28;20071;-78
2021/07/04 04:12:57;;;;;;;;;;;17.30;94.50;;;;;;5033985;28;20021;-78
2021/07/04 04:15:23;;;;;;;13.70;4.00;;;17.30;94.30;;;;;;5033724;28;20352;-77
2021/07/04 04:17:49;;;;;;;;;;;17.20;94.60;;;;;;5034034;28;20029;-76
2021/07/04 04:20:15;;;;;;;14.90;4.45;;;17.20;94.60;;;;;;5032300;28;19905;-76
2021/07/04 04:22:40;;;;;;;;;;;17.10;95.20;;;;;;5033851;28;20060;-77
2021/07/04 04:25:07;;;;;;;13.10;4.10;;;17.10;95.20;;;;;;5033523;28;19909;-78
2021/07/04 04:27:33;;;;;;;13.48;4.35;;;17.10;95.20;;;;;;5032203;28;20401;-76
2021/07/04 04:29:59;;;;;;;;;;;17.00;95.40;;;;;;5033867;28;20071;-76
2021/07/04 04:32:25;;;;;;;11.90;3.67;;;17.00;95.60;;;;;;5033349;28;20353;-78
2021/07/04 04:34:51;;;;;;;11.20;3.83;;;17.00;96.20;;;;;;5031896;28;20030;-76
2021/07/04 04:37:16;;;;;;;;;;;17.10;96.20;;;;;;5033596;28;20159;-76
2021/07/04 04:39:42;;;;;;;13.68;4.45;;;17.10;96.30;;;;;;5033325;28;19909;-78
2021/07/04 04:42:08;;;;;;;;;;;17.10;95.90;;;;;;5033648;28;20026;-77
2021/07/04 04:44:37;;;;;;;10.10;2.97;;;17.10;96.20;;;;;;5032000;28;19968;-77
2021/07/04 04:47:04;;;;;;;10.00;2.97;;;17.20;94.60;;;;;;5033203;28;20029;-78
2021/07/04 04:49:30;;;;;;;11.35;3.15;;;17.20;94.50;;;;;;5033715;28;20030;-78
2021/07/04 04:51:55;;;;;;;;;;;17.20;94.90;;;;;;5033339;28;20113;-77
2021/07/04 04:54:21;;;;;;;8.85;2.70;;;17.20;94.80;;;;;;5033302;28;20344;-77
2021/07/04 04:56:47;;;;;;;;;;;17.20;94.90;;;;;;5033611;28;20087;-77
2021/07/04 04:59:12;;;;;;;11.10;2.60;;;17.20;94.90;;;;;;5031868;28;19917;-78
2021/07/04 05:01:38;;;;;;;;;;;17.20;94.70;;;;;;5033544;28;20055;-78
2021/07/04 05:04:06;;;;;;;5.25;2.20;;;17.20;94.60;;;;;;5033487;28;19905;-77
2021/07/04 05:06:32;;;;;;;7.38;2.25;;;17.30;94.60;;;;;;5033172;28;20083;-77
2021/07/04 05:08:57;;;;;;;;;;;17.30;93.50;;;;;;5033489;28;20105;-77
2021/07/04 05:11:23;;;;;;;7.53;2.25;;;17.50;93.50;;;;;;5033061;28;19905;-77
2021/07/04 05:13:49;;;;;;;;;;;17.40;94.00;;;;;;5033349;28;20417;-77
2021/07/04 05:16:14;;;;;;;8.85;2.30;;;17.50;93.60;;;;;;5032980;28;20301;-77
2021/07/04 05:18:40;;;;;;;;;;;17.50;93.70;;;;;;5033969;28;20053;-77
2021/07/04 05:21:06;;;;;;;8.20;2.17;;;17.60;93.80;;;;;;5032932;28;20300;-78
2021/07/04 05:23:31;;;;;;;;;;;17.60;93.60;;;;;;5033269;28;20571;-76
2021/07/04 05:25:58;;;;;;;6.43;1.88;;;17.70;93.70;;;;;;5032905;28;19941;-78
2021/07/04 05:28:25;;;;;;;8.05;1.95;;;17.70;93.30;;;;;;5031602;28;20043;-78
2021/07/04 05:30:51;;;;;;;5.28;1.83;;;17.70;93.60;;;;;;5032849;28;20029;-79
2021/07/04 05:33:17;;;;;;;5.25;1.80;;;17.80;93.30;;;;;;5031453;28;20026;-77
2021/07/04 05:35:43;;;;;;;8.18;1.90;;;17.80;93.00;;;;;;5032742;28;20029;-78
2021/07/04 05:38:17;;;;;;;5.90;1.85;;;17.80;93.10;;;;;;5032613;28;20068;-78
2021/07/04 05:40:43;;;;;;;8.18;2.10;;;17.70;93.30;;;;;;5032878;28;20033;-77
2021/07/04 05:43:09;;;;;;;8.00;2.08;;;17.70;93.50;;;;;;5032832;28;20097;-76
2021/07/04 05:45:35;;;;;;;7.90;1.92;;;17.90;93.10;;;;;;5032517;28;20117;-77
2021/07/04 05:48:01;;;;;;;5.93;2.30;;;17.80;93.10;;;;;;5031373;28;20461;-78
2021/07/04 05:50:27;;;;;;;;;;;17.90;93.40;;;;;;5033080;28;20033;-78
2021/07/04 05:52:52;;;;;;;10.85;2.22;;;17.80;93.20;;;;;;5032738;28;19913;-77
2021/07/04 05:55:18;;;;;;;;;;;17.90;93.10;;;;;;5035145;28;20022;-78
2021/07/04 05:57:44;;;;;;;9.82;2.50;;;17.90;93.20;;;;;;5036168;28;19905;-76
2021/07/04 06:00:10;;;;;;;;;;;17.80;93.20;;;;;;5036427;28;20417;-77
2021/07/04 06:02:35;;;;;;;6.85;2.40;;;18.00;93.00;;;;;;5036162;28;19905;-78
2021/07/04 06:05:01;;;;;;;;;;;18.10;93.10;;;;;;5036440;28;20022;-77
2021/07/04 06:07:27;;;;;;;7.93;2.10;;;18.10;92.90;;;;;;5035962;28;19905;-78
2021/07/04 06:09:52;;;;;;;;;;;18.10;92.80;;;;;;5036341;28;20041;-76
2021/07/04 06:12:18;;;;;;;9.60;2.50;;;18.20;92.80;;;;;;5034528;28;19909;-79
2021/07/04 06:14:43;;;;;;;;;;;18.30;92.60;;;;;;5036252;28;20022;-78
2021/07/04 06:17:10;;;;;;;9.45;2.53;;;18.40;92.40;;;;;;5035950;28;19935;-77
2021/07/04 06:19:36;;;;;;;8.57;2.35;;;18.50;92.00;;;;;;5035833;28;20381;-77
2021/07/04 06:22:03;;;;;;;8.70;2.28;;;18.50;92.20;;;;;;5035685;28;20025;-77
2021/07/04 06:24:28;;;;;;;9.07;2.15;;;18.40;92.30;;;;;;5035648;28;20072;-78
2021/07/04 06:26:54;;;;;;;8.10;2.33;;;18.40;92.10;;;;;;5035779;28;20445;-77
2021/07/04 06:29:20;;;;;;;12.90;2.53;;;18.40;92.20;;;;;;5035662;28;20030;-76
2021/07/04 06:31:46;;;;;;;11.93;2.70;;;18.70;91.60;;;;;;5035531;28;20032;-76
2021/07/04 06:34:11;;;;;;;10.10;2.40;;;18.80;91.10;;;;;;5035483;28;20041;-78
2021/07/04 06:36:37;;;;;;;15.10;2.97;;;18.90;90.70;;;;;;5035291;28;20014;-78
2021/07/04 06:39:03;;;;;;;11.20;2.75;;;18.90;90.50;;;;;;5035732;28;20032;-77
2021/07/04 06:41:28;;;;;;;16.05;2.50;;;18.90;90.40;;;;;;5035351;28;20126;-77
2021/07/04 06:43:54;;;;;;;11.75;2.53;;;19.00;90.20;;;;;;5035324;28;20075;-78
2021/07/04 06:46:20;;;;;;;9.60;2.33;;;19.30;89.80;;;;;;5035536;28;20025;-79
2021/07/04 06:48:46;;;;;;;8.43;2.33;;;19.20;90.20;;;;;;5033991;28;20462;-77
2021/07/04 06:51:12;;;;;;;10.32;2.38;;;19.40;88.70;;;;;;5033927;28;20032;-78
2021/07/04 06:53:38;;;;;;;10.65;2.33;;;19.60;89.10;;;;;;5033843;28;20112;-78
2021/07/04 06:56:04;;;;;;;11.55;2.28;;;19.70;88.30;;;;;;5035137;28;20021;-76
2021/07/04 06:58:30;;;;;;;13.65;2.40;;;19.90;86.90;;;;;;5035059;28;20076;-78
2021/07/04 07:00:56;;;;;;;8.68;2.20;;;19.70;87.50;;;;;;5035004;28;20025;-78
2021/07/04 07:03:22;;;;;;;9.63;2.30;;;19.90;87.20;;;;;;5033651;28;20037;-77
2021/07/04 07:05:48;;;;;;;11.40;2.50;;;19.70;88.70;;;;;;5034905;28;20022;-77
2021/07/04 07:08:13;;;;;;;8.18;2.30;;;19.70;88.60;;;;;;5034879;28;20033;-79
2021/07/04 07:10:39;;;;;;;13.10;2.58;;;19.60;89.60;;;;;;5034853;28;20403;-78
2021/07/04 07:13:05;;;;;;;12.02;2.75;;;19.60;89.40;;;;;;5034696;28;20469;-77
2021/07/04 07:15:31;;;;;;;14.52;2.75;;;19.40;90.10;;;;;;5034872;28;20029;-78
2021/07/04 07:17:57;;;;;;;10.95;2.67;;;19.40;89.90;;;;;;5034698;28;20022;-78
2021/07/04 07:20:24;;;;;;;14.95;3.15;;;19.60;90.10;;;;;;5034610;28;20097;-78
2021/07/04 07:22:50;;;;;;;12.77;2.88;;;19.50;90.00;;;;;;5034536;28;20029;-76
2021/07/04 07:25:17;;;;;;;8.05;2.53;;;19.50;89.30;;;;;;5034552;28;20052;-78
2021/07/04 07:27:43;;;;;;;11.63;2.53;;;19.30;89.40;;;;;;5034426;28;20027;-77
2021/07/04 07:30:11;;;;;;;13.23;2.70;;;19.00;90.80;;;;;;5034410;28;20040;-77
2021/07/04 07:32:37;;;;;;;12.63;2.90;;;18.80;91.60;;;;;;5034391;28;20056;-77
2021/07/04 07:35:06;;;;;;;10.70;2.80;;;18.80;91.90;;;;;;5034306;28;20025;-77
2021/07/04 07:37:31;;;;;;;13.18;3.03;;;18.70;92.30;;;;;;5034437;28;20042;-77
2021/07/04 07:39:57;;;;;;;11.63;2.58;;;18.80;91.70;;;;;;5034503;28;20093;-78
2021/07/04 07:42:23;;;;;;;;;;;18.90;91.30;;;;;;5034621;28;20049;-78
2021/07/04 07:44:49;;;;;;;14.27;3.20;;;18.80;91.60;;;;;;5034216;28;19912;-76
2021/07/04 07:47:14;;;;;;;10.93;2.92;;;18.80;92.00;;;;;;5034531;28;20060;-77
2021/07/04 07:49:40;;;;;;;14.18;3.22;;;18.90;91.60;;;;;;5032778;28;20037;-76
2021/07/04 07:52:06;;;;;;;9.65;3.10;;;18.80;92.20;;;;;;5034098;28;20034;-78
2021/07/04 07:54:33;;;;;;;11.70;2.85;;;18.80;92.30;;;;;;5034074;28;20597;-76
2021/07/04 07:57:02;;;;;;;19.08;3.70;;;18.80;91.70;;;;;;5034667;28;20025;-83
2021/07/04 07:59:30;;;;;;;14.43;4.10;;;18.10;96.60;;;;;;5034240;28;20029;-80
2021/07/04 08:01:57;;;;;;;12.88;3.60;;;18.00;98.50;;;;;;5034124;28;20021;-82
2021/07/04 08:04:23;;;;;;;14.20;3.10;;;18.20;98.50;;;;;;5032484;28;20548;-81
2021/07/04 08:06:49;;;;;;;12.80;3.40;;;18.50;98.40;;;;;;5033718;28;20481;-81
2021/07/04 08:09:14;;;;;;;11.27;2.92;;;18.60;97.30;;;;;;5033720;28;20021;-81
2021/07/04 08:11:41;;;;;;;11.57;2.80;;;18.70;95.00;;;;;;5033899;28;20017;-81
2021/07/04 08:14:06;;;;;;;10.30;2.80;;;18.80;96.20;;;;;;5033603;28;20045;-81
2021/07/04 08:16:32;;;;;;;7.20;2.20;;;19.20;95.00;;;;;;5033476;28;20068;-81
2021/07/04 08:18:58;;;;;;;9.18;2.15;;;19.60;93.70;;;;;;5031912;28;20017;-83
2021/07/04 08:21:26;;;;;;;7.45;2.25;;;19.70;93.50;;;;;;5033741;28;20025;-82
2021/07/04 08:23:52;;;;;;;7.05;2.10;;;19.80;91.40;;;;;;5033463;28;20025;-81
2021/07/04 08:26:17;;;;;;;8.02;2.28;;;20.40;90.40;;;;;;5033389;28;20033;-81
2021/07/04 08:28:43;;;;;;;14.70;2.67;;;20.40;90.00;;;;;;5033584;28;20029;-83
2021/07/04 08:31:09;;;;;;;8.02;2.05;;;20.20;90.00;;;;;;5032262;28;20417;-80
2021/07/04 08:33:35;;;;;;;11.25;3.05;;;20.30;89.70;;;;;;5033483;28;20025;-80
2021/07/04 08:36:00;;;;;;;11.07;2.35;;;20.50;88.90;;;;;;5033685;28;20018;-80
2021/07/04 08:38:26;;;;;;;8.90;2.40;;;20.60;88.40;;;;;;5033553;28;20042;-80
2021/07/04 08:40:52;;;;;;;8.43;2.15;;;20.40;89.10;;;;;;5033770;28;20068;-79
2021/07/04 08:43:25;;;;;;;9.52;2.60;;;20.40;90.40;;;;;;5032491;28;20056;-82
2021/07/04 08:45:52;;;;;;;8.70;2.72;;;20.00;90.80;;;;;;5033566;28;20034;-80
2021/07/04 08:48:18;;;;;;;9.55;2.45;;;19.60;91.30;;;;;;5033223;28;20040;-81
2021/07/04 08:50:44;;;;;;;14.27;2.25;;;19.40;92.20;;;;;;5033190;28;20026;-83
2021/07/04 08:53:10;;;;;;;7.85;2.00;;;18.90;91.70;;;;;;5033102;28;20022;-80
2021/07/04 08:55:35;;;;;;;4.45;1.70;;;18.60;92.60;;;;;;5033023;28;20022;-80
2021/07/04 08:58:01;;;;;;;;;;;18.40;92.50;;;;;;5032090;28;20021;-79
2021/07/04 09:00:27;;;;;;;5.13;1.50;;;18.30;93.20;;;;;;5033131;28;19905;-80
2021/07/04 09:02:54;;;;;;;5.47;1.58;;;18.30;93.00;;;;;;5031821;28;20033;-81
2021/07/04 09:05:20;;;;;;;9.85;2.13;;;18.20;92.60;;;;;;5033083;28;20028;-81
2021/07/04 09:07:46;;;;;;;5.43;1.58;;;18.30;93.60;;;;;;5033035;28;20482;-79
2021/07/04 09:10:15;;;;;;;5.82;1.70;;;18.40;92.50;;;;;;5033074;28;20215;-81
2021/07/04 09:12:51;;;;;;;5.30;1.90;;;18.50;93.30;;;;;;5032970;28;20509;-81
2021/07/04 09:15:21;;;;;;;11.18;2.00;;;18.70;93.30;;;;;;5033239;28;20017;-80
2021/07/04 09:17:50;;;;;;;6.10;1.58;;;18.80;92.10;;;;;;5033089;28;20140;-81
2021/07/04 09:20:37;;;;;;;5.68;1.80;;;19.10;93.10;;;;;;5032886;28;20053;-81
2021/07/04 09:23:04;;;;;;;7.32;1.77;;;19.40;91.00;;;;;;5033025;28;20076;-82
2021/07/04 09:25:32;;;;;;;5.75;1.70;;;19.70;91.70;;;;;;5032925;28;20026;-81
2021/07/04 09:28:11;;;;;;;5.90;1.60;;;20.10;91.70;;;;;;5031640;28;20034;-80
2021/07/04 09:30:39;;;;;;;8.13;1.83;;;20.60;90.90;;;;;;5036666;28;20036;-80
2021/07/04 09:33:14;;;;;;;7.60;1.90;;;20.80;84.60;;;;;;5036579;28;20363;-82
2021/07/04 09:35:51;;;;;;;5.82;1.75;;;20.90;84.90;;;;;;5035204;28;20030;-82
2021/07/04 09:38:17;;;;;;;9.07;2.28;;;21.20;84.00;;;;;;5036387;28;20077;-80
2021/07/04 09:40:44;;;;;;;6.55;1.70;;;21.80;82.20;;;;;;5036606;28;20040;-81
2021/07/04 09:43:15;;;;;;;7.97;1.60;;;22.60;78.50;;;;;;5036575;28;20029;-80
2021/07/04 09:45:48;;;;;;;6.70;1.90;;;22.80;77.20;;;;;;5036781;28;20084;-79
2021/07/04 09:48:23;;;;;;;6.65;1.60;;;22.30;78.60;;;;;;5034814;28;20027;-80
2021/07/04 09:50:53;;;;;;;6.35;1.88;;;22.20;76.70;;;;;;5035082;28;20026;-81
2021/07/04 09:53:21;;;;;;;6.97;1.77;;;22.40;73.20;;;;;;5034596;28;20498;-78
2021/07/04 09:55:51;;;;;;;4.68;1.52;;;22.40;72.20;;;;;;5036360;28;20040;-79
2021/07/04 09:58:17;;;;;;;8.27;1.85;;;22.00;73.00;;;;;;5034909;28;20017;-80
2021/07/04 10:00:45;;;;;;;9.65;1.70;;;21.50;72.70;;;;;;5036187;28;20027;-77
2021/07/04 10:03:21;;;;;;;6.95;1.73;;;21.00;74.20;;;;;;5036346;28;20430;-80
2021/07/04 10:05:55;;;;;;;6.80;1.80;;;21.10;73.90;;;;;;5036179;28;20018;-80
2021/07/04 10:08:27;;;;;;;8.93;1.70;;;21.60;71.90;;;;;;5036125;28;20029;-78
2021/07/04 10:10:56;;;;;;;7.28;1.60;;;21.90;69.50;;;;;;5036058;28;20044;-78
2021/07/04 10:13:22;;;;;;;6.25;1.48;;;21.80;69.30;;;;;;5035835;28;20025;-79
2021/07/04 10:15:48;;;;;;;6.72;1.60;;;22.30;67.80;;;;;;5036035;28;20022;-78
2021/07/04 10:18:16;;;;;;;5.22;1.45;;;22.20;66.10;;;;;;5034533;28;20051;-77
2021/07/04 10:20:43;;;;;;;7.18;1.60;;;22.00;67.70;;;;;;5035814;28;20014;-80
2021/07/04 10:23:20;;;;;;;7.97;1.98;;;21.90;68.10;;;;;;5035611;28;20025;-77
2021/07/04 10:25:48;;;;;;;7.22;1.70;;;21.70;68.10;;;;;;5035929;28;20512;-79
2021/07/04 10:28:28;;;;;;;10.88;1.88;;;21.30;67.00;;;;;;5035622;28;20025;-79
2021/07/04 10:30:54;;;;;;;6.90;1.70;;;22.30;66.40;;;;;;5034068;28;20030;-79
2021/07/04 10:33:26;;;;;;;6.72;1.92;;;23.40;63.80;;;;;;5034212;28;20112;-77
2021/07/04 10:35:58;;;;;;;6.28;1.50;;;24.70;60.00;;;;;;5035540;28;20096;-76
2021/07/04 10:38:24;;;;;;;6.93;1.60;;;23.50;61.60;;;;;;5035037;28;20520;-79
2021/07/04 10:40:50;;;;;;;8.38;1.70;;;23.60;62.20;;;;;;5034812;28;20052;-78
2021/07/04 10:43:47;;;;;;;3.63;1.40;;;24.70;57.40;;;;;;5035539;28;20037;-79
2021/07/04 10:46:13;;;;;;;7.60;1.60;;;25.10;55.50;;;;;;5035341;28;20106;-79
2021/07/04 10:48:55;;;;;;;7.65;1.67;;;23.90;55.60;;;;;;5035254;28;20435;-79
2021/07/04 10:51:22;;;;;;;9.57;1.70;;;23.10;59.20;;;;;;5035413;28;20026;-77
2021/07/04 10:53:53;;;;;;;8.63;1.60;;;23.50;58.80;;;;;;5035277;28;20496;-78
2021/07/04 10:56:38;;;;;;;4.68;1.20;;;23.70;57.60;;;;;;5033610;28;20052;-78
2021/07/04 10:59:17;;;;;;;7.25;1.63;;;23.40;57.90;;;;;;5035060;28;20041;-78
2021/07/04 11:02:00;;;;;;;10.23;1.90;;;24.70;56.20;;;;;;5033727;28;20026;-77
2021/07/04 11:04:32;;;;;;;5.53;1.52;;;25.70;54.20;;;;;;5035058;28;20096;-76
2021/07/04 11:07:02;;;;;;;7.57;1.73;;;26.60;50.70;;;;;;5035371;28;20018;-77
2021/07/04 11:09:52;;;;;;;9.43;2.85;;;27.50;50.70;;;;;;5035253;28;20017;-79
2021/07/04 11:12:31;;;;;;;7.53;1.60;;;28.10;48.20;;;;;;5034741;28;20030;-78
2021/07/04 11:15:15;;;;;;;6.85;1.52;;;28.10;46.10;;;;;;5034933;28;20028;-78
2021/07/04 11:17:59;;;;;;;6.20;1.52;;;29.50;45.60;;;;;;5033484;28;20029;-80
2021/07/04 11:20:26;;;;;;;5.10;1.45;;;28.90;43.90;;;;;;5034678;28;20453;-79
2021/07/04 11:23:16;;;;;;;6.75;1.40;;;28.20;46.00;;;;;;5033267;28;20061;-77
2021/07/04 11:25:53;;;;;;;5.57;1.38;;;27.70;46.50;;;;;;5034926;28;20025;-80
2021/07/04 11:28:23;;;;;;;5.35;1.48;;;27.20;48.30;;;;;;5034693;28;20025;-78
2021/07/04 11:31:06;;;;;;;5.45;1.60;;;26.70;48.50;;;;;;5034449;28;20394;-78
2021/07/04 11:33:42;;;;;;;6.18;1.50;;;26.80;48.10;;;;;;5032861;28;20029;-79
2021/07/04 11:36:27;;;;;;;8.45;1.63;;;26.10;47.70;;;;;;5034493;28;20022;-78
2021/07/04 11:39:00;;;;;;;;;;;27.00;47.70;;;;;;5034249;28;20068;-77
2021/07/04 11:41:32;;;;;;;2.97;1.20;;;27.30;47.60;;;;;;5034433;28;19909;-77
2021/07/04 11:44:00;;;;;;;5.35;1.30;;;27.40;46.30;;;;;;5034411;28;20055;-79
2021/07/04 11:46:28;;;;;;;6.93;1.52;;;26.80;47.10;;;;;;5034133;28;20037;-78
2021/07/04 11:49:06;;;;;;;6.10;1.50;;;27.50;46.10;;;;;;5032831;28;20474;-79
2021/07/04 11:51:47;;;;;;;7.90;1.70;;;28.20;46.10;;;;;;5032091;28;20025;-78
2021/07/04 11:54:22;;;;;;;6.93;1.60;;;27.70;45.90;;;;;;5033770;28;20363;-79
2021/07/04 11:56:52;;;;;;;4.60;1.50;;;28.20;45.60;;;;;;5034377;28;20056;-78
2021/07/04 11:59:21;;;;;;;5.63;1.40;;;28.10;44.60;;;;;;5034069;28;20032;-78
2021/07/04 12:02:00;;;;;;;5.80;1.40;;;27.20;44.40;;;;;;5034035;28;20090;-78
2021/07/04 12:04:32;;;;;;;8.52;1.73;;;26.80;46.20;;;;;;5033876;28;20028;-78
2021/07/04 12:07:02;;;;;;;6.03;1.60;;;27.20;46.90;;;;;;5033833;28;20429;-77
2021/07/04 12:09:44;;;;;;;5.90;1.80;;;27.60;46.20;;;;;;5033804;28;20481;-79
2021/07/04 12:12:14;;;;;;;10.55;1.98;;;28.30;44.80;;;;;;5033863;28;20027;-78
2021/07/04 12:14:41;;;;;;;8.35;1.70;;;29.10;45.20;;;;;;5033696;28;20026;-78
2021/07/04 12:17:20;;;;;;;5.85;1.60;;;28.10;45.70;;;;;;5033567;28;20017;-78
2021/07/04 12:19:56;;;;;;;7.28;1.38;;;28.30;45.50;;;;;;5033693;28;20091;-77
2021/07/04 12:22:28;;;;;;;6.13;1.50;;;28.20;46.60;;;;;;5033451;28;20024;-77
2021/07/04 12:24:55;;;;;;;7.13;1.75;;;27.70;45.90;;;;;;5034052;28;20596;-77
2021/07/04 12:27:37;;;;;;;7.32;2.33;;;27.10;46.50;;;;;;5033557;28;20025;-78
2021/07/04 12:30:08;;;;;;;6.45;1.50;;;26.90;48.60;;;;;;5033912;28;20033;-79
2021/07/04 12:32:41;;;;;;;6.18;1.40;;;27.10;48.10;;;;;;5033419;28;20481;-76
2021/07/04 12:35:09;;;;;;;6.55;1.50;;;27.50;47.40;;;;;;5032361;28;20496;-79
2021/07/04 12:37:35;;;;;;;7.50;1.73;;;27.00;47.60;;;;;;5033133;28;20037;-78
2021/07/04 12:40:12;;;;;;;4.80;1.40;;;26.20;47.80;;;;;;5032065;28;20033;-79
2021/07/04 12:42:39;;;;;;;4.90;1.58;;;26.90;48.30;;;;;;5033397;28;20025;-78
2021/07/04 12:45:12;;;;;;;7.55;1.63;;;26.90;49.10;;;;;;5033407;28;20025;-78
2021/07/04 12:47:38;;;;;;;6.30;1.67;;;26.80;47.50;;;;;;5033587;28;20096;-78
2021/07/04 12:50:09;;;;;;;6.15;1.75;;;26.40;48.80;;;;;;5033249;28;20051;-77
2021/07/04 12:52:35;;;;;;;8.43;1.75;;;26.70;48.20;;;;;;5033400;28;20030;-79
2021/07/04 12:55:02;;;;;;;5.82;1.58;;;27.00;49.10;;;;;;5033193;28;20025;-77
2021/07/04 12:57:36;;;;;;;6.30;1.67;;;27.20;47.40;;;;;;5033114;28;20096;-80
2021/07/04 13:00:32;;;;;;;7.57;1.77;;;27.80;47.10;;;;;;5033229;28;20025;-79